Schedule Details

Flight Number: CPX810
Departure: Ramstein Air Force Base (ETAR) at N/A
Arrival: Joint Base McGuire Dix Lakehurst (KWRI) at N/A


Current Weather Information
ETAR 180556Z 00000KT 9999 CLR M04/M06 A3017 RMK AO2A SLP234 T1045 11027 21056 57003 $
KWRI 180554Z COR 08004KT 7SM OVC009 01/01 A2987 RMK AO2A RAE11RAB33E54 PRESRR SLP116 $ COR 0556

Route Map